Time;durP1;ratioP1;P1;durP2;ratioP2;P2;SDS_P1;SDS_P2;PMS_P1;PMS_P2;Temp;Humidity;BMP_temperature;BMP_pressure;BME280_temperature;BME280_humidity;BME280_pressure;Samples;Min_cycle;Max_cycle;Signal;HPM_P1;HPM_P2
2022/10/05 00:01:38;;;;;;;;;;;;;;;16.00;100.00;101626.22;5057971;28;19912;-65
2022/10/05 00:04:14;;;;;;;;;;;;;;;16.01;100.00;101622.69;5054362;28;19916;-65
2022/10/05 00:06:39;;;;;;;;;;;;;;;15.98;100.00;101623.56;5064358;28;19919;-65
2022/10/05 00:09:15;;;;;;;;;;;;;;;15.96;100.00;101622.66;5065656;28;19995;-65
2022/10/05 00:11:40;;;;;;;;;;;;;;;15.95;100.00;101618.25;5070291;28;19955;-65
2022/10/05 00:14:19;;;;;;;;;;;;;;;15.96;100.00;101621.78;5060826;28;20280;-66
2022/10/05 00:16:45;;;;;;;;;;;;;;;15.99;100.00;101616.47;5034912;28;19913;-66
2022/10/05 00:19:17;;;;;;;;;;;;;;;15.96;100.00;101606.72;5035233;28;19981;-66
2022/10/05 00:21:43;;;;;;;;;;;;;;;15.98;100.00;101601.44;5065083;28;19912;-65
2022/10/05 00:24:08;;;;;;;;;;;;;;;15.93;100.00;101600.53;5059106;28;20364;-66
2022/10/05 00:26:34;;;;;;;;;;;;;;;15.97;100.00;101610.28;5056358;28;19920;-66
2022/10/05 00:29:00;;;;;;;;;;;;;;;15.98;100.00;101615.59;5065287;28;20399;-65
2022/10/05 00:31:29;;;;;;;;;;;;;;;15.95;100.00;101609.38;5064070;28;20391;-66
2022/10/05 00:33:55;;;;;;;;;;;;;;;15.98;100.00;101604.09;5052710;28;19959;-66
2022/10/05 00:36:20;;;;;;;;;;;;;;;15.96;100.00;101603.19;5071940;28;19947;-66
2022/10/05 00:38:46;;;;;;;;;;;;;;;16.01;100.00;101604.13;5058473;28;20303;-66
2022/10/05 00:41:14;;;;;;;;;;;;;;;15.92;100.00;101599.63;5057890;28;20389;-66
2022/10/05 00:43:39;;;;;;;;;;;;;;;15.93;100.00;101596.09;5053471;28;19987;-64
2022/10/05 00:46:13;;;;;;;;;;;;;;;15.96;100.00;101590.78;5069804;28;19940;-66
2022/10/05 00:48:48;;;;;;;;;;;;;;;15.92;100.00;101572.19;5053226;28;19919;-65
2022/10/05 00:51:13;;;;;;;;;;;;;;;15.93;100.00;101576.63;5049900;28;19971;-65
2022/10/05 00:53:47;;;;;;;;;;;;;;;15.90;100.00;101582.81;5055448;28;19917;-65
2022/10/05 00:56:22;;;;;;;;;;;;;;;15.98;100.00;101566.94;5060382;28;19912;-65
2022/10/05 00:58:53;;;;;;;;;;;;;;;15.99;100.00;101566.03;5059301;28;19920;-65
2022/10/05 01:01:26;;;;;;;;;;;;;;;15.96;100.00;101560.72;5052193;28;19913;-66
2022/10/05 01:03:59;;;;;;;;;;;;;;;15.93;100.00;101563.38;5063702;28;20390;-66
2022/10/05 01:06:39;;;;;;;;;;;;;;;15.89;100.00;101550.94;5050647;28;19990;-66
2022/10/05 01:09:17;;;;;;;;;;;;;;;15.89;100.00;101546.53;5046770;28;19954;-65
2022/10/05 01:11:49;;;;;;;;;;;;;;;15.91;100.00;101538.56;5064407;28;19912;-65
2022/10/05 01:14:17;;;;;;;;;;;;;;;15.94;100.00;101528.84;5072744;28;19913;-66
2022/10/05 01:16:50;;;;;;;;;;;;;;;15.89;100.00;101524.41;5064226;28;20390;-65
2022/10/05 01:19:34;;;;;;;;;;;;;;;15.85;100.00;101526.16;5050981;28;19934;-66
2022/10/05 01:22:04;;;;;;;;;;;;;;;15.89;100.00;101524.41;5060106;28;19916;-65
2022/10/05 01:24:42;;;;;;;;;;;;;;;15.92;100.00;101535.03;5060632;28;19958;-65
2022/10/05 01:27:14;;;;;;;;;;;;;;;15.96;100.00;101534.16;5062830;28;19912;-65
2022/10/05 01:29:46;;;;;;;;;;;;;;;15.96;100.00;101527.09;5063031;28;19924;-66
2022/10/05 01:32:19;;;;;;;;;;;;;;;15.93;100.00;101532.38;5055140;28;19939;-64
2022/10/05 01:34:47;;;;;;;;;;;;;;;15.96;100.00;101532.41;5055218;28;20007;-65
2022/10/05 01:37:34;;;;;;;;;;;;;;;15.89;100.00;101535.03;5072281;28;19916;-66
2022/10/05 01:40:17;;;;;;;;;;;;;;;15.92;100.00;101535.91;5064001;28;19923;-67
2022/10/05 01:42:54;;;;;;;;;;;;;;;15.92;100.00;101527.06;5064346;28;20396;-65
2022/10/05 01:45:20;;;;;;;;;;;;;;;15.91;100.00;101517.31;5061857;28;19918;-65
2022/10/05 01:48:05;;;;;;;;;;;;;;;15.88;100.00;101498.75;5070575;28;19999;-66
2022/10/05 01:50:37;;;;;;;;;;;;;;;15.84;100.00;101490.78;5051201;28;19952;-65
2022/10/05 01:53:11;;;;;;;;;;;;;;;15.89;100.00;101476.63;5039725;28;20279;-66
2022/10/05 01:55:37;;;;;;;;;;;;;;;15.87;100.00;101470.41;5057000;28;19920;-65
2022/10/05 01:58:10;;;;;;;;;;;;;;;15.91;100.00;101477.53;5064112;28;20371;-65
2022/10/05 02:00:48;;;;;;;;;;;;;;;15.81;100.00;101498.69;5055377;28;19916;-67
2022/10/05 02:03:26;;;;;;;;;;;;;;;15.72;100.00;101490.69;5070815;28;19955;-65
2022/10/05 02:05:57;;;;;;;;;;;;;;;15.68;100.00;101468.53;5062739;28;19952;-65
2022/10/05 02:08:31;;;;;;;;;;;;;;;15.64;100.00;101465.84;5060914;28;19954;-66
2022/10/05 02:11:14;;;;;;;;;;;;;;;15.65;100.00;101451.69;5073044;28;20284;-65
2022/10/05 02:13:48;;;;;;;;;;;;;;;15.49;100.00;101456.94;5066878;28;19922;-66
2022/10/05 02:16:24;;;;;;;;;;;;;;;15.55;100.00;101449.91;5069295;28;19919;-65
2022/10/05 02:18:59;;;;;;;;;;;;;;;15.55;100.00;101460.50;5074256;28;19916;-66
2022/10/05 02:21:25;;;;;;;;;;;;;;;15.47;100.00;101452.50;5055480;28;20279;-65
2022/10/05 02:23:55;;;;;;;;;;;;;;;15.49;100.00;101462.25;5059107;28;20269;-65
2022/10/05 02:26:21;;;;;;;;;;;;;;;15.50;100.00;101456.06;5071502;28;19912;-65
2022/10/05 02:28:50;;;;;;;;;;;;;;;15.48;100.00;101454.28;5062058;28;20359;-65
2022/10/05 02:31:22;;;;;;;;;;;;;;;15.45;100.00;101455.16;5055582;28;20348;-66
2022/10/05 02:33:48;;;;;;;;;;;;;;;15.41;100.00;101450.69;5057500;28;19916;-66
2022/10/05 02:36:18;;;;;;;;;;;;;;;15.42;100.00;101452.44;5058424;28;19913;-65
2022/10/05 02:38:44;;;;;;;;;;;;;;;15.44;100.00;101453.38;5060956;28;20411;-65
2022/10/05 02:41:09;;;;;;;;;;;;;;;15.40;100.00;101448.03;5063212;28;19920;-64
2022/10/05 02:43:38;;;;;;;;;;;;;;;15.41;100.00;101453.34;5067316;28;19916;-64
2022/10/05 02:46:07;;;;;;;;;;;;;;;15.41;100.00;101458.66;5061589;28;19912;-65
2022/10/05 02:48:47;;;;;;;;;;;;;;;15.32;100.00;101463.88;5061545;28;19959;-65
2022/10/05 02:51:13;;;;;;;;;;;;;;;15.33;100.00;101460.38;5067687;28;19973;-65
2022/10/05 02:53:58;;;;;;;;;;;;;;;15.32;100.00;101454.16;5054772;28;19921;-65
2022/10/05 02:56:39;;;;;;;;;;;;;;;15.34;100.00;101447.13;5069553;28;19967;-64
2022/10/05 02:59:19;;;;;;;;;;;;;;;15.35;100.00;101448.00;5061932;28;19912;-65
2022/10/05 03:01:47;;;;;;;;;;;;;;;15.36;100.00;101455.06;5069172;28;20359;-65
2022/10/05 03:04:37;;;;;;;;;;;;;;;15.32;100.00;101455.94;5053028;28;19958;-65
2022/10/05 03:07:09;;;;;;;;;;;;;;;15.29;100.00;101458.56;5071541;28;19912;-65
2022/10/05 03:09:38;;;;;;;;;;;;;;;15.33;100.00;101452.41;5054780;28;19912;-65
2022/10/05 03:12:15;;;;;;;;;;;;;;;15.29;100.00;101451.50;5057655;28;19916;-66
2022/10/05 03:14:45;;;;;;;;;;;;;;;15.32;100.00;101443.56;5053199;28;19920;-65
2022/10/05 03:17:10;;;;;;;;;;;;;;;15.33;100.00;101450.63;5065565;28;19951;-65
2022/10/05 03:19:54;;;;;;;;;;;;;;;15.34;100.00;101452.41;5053894;28;19948;-65
2022/10/05 03:22:37;;;;;;;;;;;;;;;15.38;100.00;101447.13;5053729;28;20747;-64
2022/10/05 03:25:21;;;;;;;;;;;;;;;15.34;100.00;101446.22;5054015;28;19920;-65
2022/10/05 03:28:05;;;;;;;;;;;;;;;15.36;100.00;101443.59;5062121;28;19913;-65
2022/10/05 03:30:37;;;;;;;;;;;;;;;15.37;100.00;101433.00;5057687;28;20383;-65
2022/10/05 03:33:19;;;;;;;;;;;;;;;15.44;100.00;101436.56;5067442;28;20392;-64
2022/10/05 03:35:51;;;;;;;;;;;;;;;15.46;100.00;101430.41;5053750;28;19919;-64
2022/10/05 03:38:19;;;;;;;;;;;;;;;15.40;100.00;101426.81;5061514;28;19967;-64
2022/10/05 03:40:58;;;;;;;;;;;;;;;15.44;100.00;101434.78;5053478;28;19913;-66
2022/10/05 03:43:23;;;;;;;;;;;;;;;15.47;100.00;101432.16;5052545;28;19967;-65
2022/10/05 03:45:56;;;;;;;;;;;;;;;15.46;100.00;101426.84;5053607;28;20380;-66
2022/10/05 03:48:32;;;;;;;;;;;;;;;15.47;100.00;101437.47;5050659;28;19912;-66
2022/10/05 03:51:28;;;;;;;;;;;;;;;15.45;100.00;101427.72;5053289;28;19921;-65
2022/10/05 03:54:02;;;;;;;;;;;;;;;15.48;100.00;101420.69;5061384;28;19921;-65
2022/10/05 03:56:30;;;;;;;;;;;;;;;15.46;100.00;101429.50;5065534;28;20006;-65
2022/10/05 03:58:59;;;;;;;;;;;;;;;15.49;100.00;101418.91;5062259;28;19912;-65
2022/10/05 04:01:34;;;;;;;;;;;;;;;15.48;100.00;101418.03;5071755;28;19930;-65
2022/10/05 04:04:02;;;;;;;;;;;;;;;15.50;100.00;101421.59;5035367;28;20192;-66
2022/10/05 04:06:37;;;;;;;;;;;;;;;15.51;100.00;101417.16;5053512;28;19955;-65
2022/10/05 04:09:02;;;;;;;;;;;;;;;15.48;100.00;101411.84;5059292;28;19933;-65
2022/10/05 04:11:30;;;;;;;;;;;;;;;15.48;100.00;101414.50;5067976;28;19916;-65
2022/10/05 04:14:05;;;;;;;;;;;;;;;15.44;100.00;101413.56;5073159;28;19916;-65
2022/10/05 04:16:35;;;;;;;;;;;;;;;15.44;100.00;101408.28;5058342;28;19913;-65
2022/10/05 04:19:08;;;;;;;;;;;;;;;15.45;100.00;101412.72;5072652;28;19943;-66
2022/10/05 04:21:40;;;;;;;;;;;;;;;15.45;100.00;101423.31;5072677;28;19958;-65
2022/10/05 04:24:10;;;;;;;;;;;;;;;15.50;100.00;101416.28;5063465;28;19944;-65
2022/10/05 04:26:49;;;;;;;;;;;;;;;15.41;100.00;101408.25;5062441;28;19935;-65
2022/10/05 04:29:14;;;;;;;;;;;;;;;15.40;100.00;101414.44;5071319;28;19952;-65
2022/10/05 04:31:51;;;;;;;;;;;;;;;15.46;100.00;101403.88;5067309;28;19947;-66
2022/10/05 04:34:27;;;;;;;;;;;;;;;15.43;100.00;101395.88;5037547;28;19931;-65
2022/10/05 04:36:58;;;;;;;;;;;;;;;15.42;100.00;101391.44;5059457;28;19912;-65
2022/10/05 04:39:33;;;;;;;;;;;;;;;15.41;100.00;101389.69;5073052;28;20269;-65
2022/10/05 04:42:07;;;;;;;;;;;;;;;15.42;100.00;101386.16;5072565;28;19912;-65
2022/10/05 04:44:35;;;;;;;;;;;;;;;15.39;100.00;101380.84;5072227;28;20363;-65
2022/10/05 04:47:19;;;;;;;;;;;;;;;15.39;100.00;101383.50;5062218;28;19916;-66
2022/10/05 04:50:03;;;;;;;;;;;;;;;15.47;100.00;101381.75;5052371;28;19948;-65
2022/10/05 04:52:47;;;;;;;;;;;;;;;15.40;100.00;101372.00;5062558;28;19917;-66
2022/10/05 04:55:31;;;;;;;;;;;;;;;15.40;100.00;101374.66;5051880;28;19970;-65
2022/10/05 04:58:11;;;;;;;;;;;;;;;15.43;100.00;101373.78;5044907;28;19912;-66
2022/10/05 05:00:55;;;;;;;;;;;;;;;15.40;100.00;101360.53;5050554;28;19921;-66
2022/10/05 05:03:38;;;;;;;;;;;;;;;15.32;100.00;101366.66;5052515;28;19923;-65
2022/10/05 05:06:06;;;;;;;;;;;;;;;15.27;100.00;101362.22;5050202;28;19913;-65
2022/10/05 05:08:52;;;;;;;;;;;;;;;15.27;100.00;101355.13;5051083;28;19913;-66
2022/10/05 05:11:36;;;;;;;;;;;;;;;15.30;100.00;101364.88;5035278;28;19917;-65
2022/10/05 05:14:04;;;;;;;;;;;;;;;15.29;100.00;101357.81;5072368;28;20007;-66
2022/10/05 05:16:29;;;;;;;;;;;;;;;15.23;100.00;101357.78;5070732;28;19938;-65
2022/10/05 05:19:10;;;;;;;;;;;;;;;15.26;100.00;101363.09;5072194;28;19912;-65
2022/10/05 05:21:43;;;;;;;;;;;;;;;15.26;100.00;101358.69;5072823;28;19920;-65
2022/10/05 05:24:09;;;;;;;;;;;;;;;15.25;100.00;101351.59;5071969;28;19951;-65
2022/10/05 05:26:37;;;;;;;;;;;;;;;15.25;100.00;101348.06;5072762;28;19940;-65
2022/10/05 05:29:24;;;;;;;;;;;;;;;15.36;100.00;101346.34;5072028;28;19918;-65
2022/10/05 05:31:56;;;;;;;;;;;;;;;15.40;100.00;101349.91;5080122;28;19919;-63
2022/10/05 05:34:40;;;;;;;;;;;;;;;15.31;100.00;101340.13;5087577;28;20302;-65
2022/10/05 05:37:08;;;;;;;;;;;;;;;15.40;100.00;101348.16;5071669;28;19923;-65
2022/10/05 05:39:45;;;;;;;;;;;;;;;15.40;100.00;101350.78;5082311;28;19911;-64
2022/10/05 05:42:15;;;;;;;;;;;;;;;15.36;100.00;101343.69;5068531;28;19916;-64
2022/10/05 05:44:46;;;;;;;;;;;;;;;15.34;100.00;101343.69;5090259;28;20348;-64
2022/10/05 05:47:33;;;;;;;;;;;;;;;15.33;100.00;101355.19;5087498;28;19950;-66
2022/10/05 05:50:11;;;;;;;;;;;;;;;15.38;100.00;101347.22;5089024;28;19920;-65
2022/10/05 05:52:36;;;;;;;;;;;;;;;15.38;100.00;101341.94;5080458;28;19938;-66
2022/10/05 05:55:02;;;;;;;;;;;;;;;15.37;100.00;101350.78;5094613;28;19912;-66
2022/10/05 05:57:27;;;;;;;;;;;;;;;15.39;100.00;101349.00;5063250;28;20352;-66
2022/10/05 06:00:00;;;;;;;;;;;;;;;15.42;100.00;101353.44;5072587;28;19912;-66
2022/10/05 06:02:34;;;;;;;;;;;;;;;15.46;100.00;101345.53;5073188;28;20010;-65
2022/10/05 06:05:03;;;;;;;;;;;;;;;15.48;100.00;101338.44;5072789;28;19916;-64
2022/10/05 06:07:29;;;;;;;;;;;;;;;15.43;100.00;101353.44;5055998;28;19916;-65
2022/10/05 06:10:00;;;;;;;;;;;;;;;15.46;100.00;101347.28;5069917;28;20309;-65
2022/10/05 06:12:31;;;;;;;;;;;;;;;15.47;100.00;101349.06;5073552;28;20355;-67
2022/10/05 06:15:00;;;;;;;;;;;;;;;15.44;100.00;101347.28;5074511;28;19955;-63
2022/10/05 06:17:25;;;;;;;;;;;;;;;15.48;100.00;101343.75;5076708;28;20284;-66
2022/10/05 06:19:52;;;;;;;;;;;;;;;15.48;100.00;101356.16;5075666;28;19912;-65
2022/10/05 06:22:24;;;;;;;;;;;;;;;15.50;100.00;101351.72;5075068;28;19998;-66
2022/10/05 06:24:58;;;;;;;;;;;;;;;15.51;100.00;101351.72;5073793;28;19921;-66
2022/10/05 06:27:25;;;;;;;;;;;;;;;15.55;100.00;101351.75;5079140;28;20401;-67
2022/10/05 06:30:09;;;;;;;;;;;;;;;15.58;100.00;101352.63;5073893;28;20287;-66
2022/10/05 06:32:46;;;;;;;;;;;;;;;15.57;100.00;101353.53;5072960;28;19925;-66
2022/10/05 06:35:12;;;;;;;;;;;;;;;15.58;100.00;101354.41;5071304;28;19966;-66
2022/10/05 06:37:40;;;;;;;;;;;;;;;15.61;100.00;101355.31;5081690;28;20371;-66
2022/10/05 06:40:05;;;;;;;;;;;;;;;15.56;100.00;101345.53;5095426;28;19915;-67
2022/10/05 06:43:06;;;;;;;;;;;;;;;15.59;100.00;101350.88;5082533;28;19920;-66
2022/10/05 06:45:37;;;;;;;;;;;;;;;15.59;100.00;101353.53;5026387;28;19952;-66
2022/10/05 06:48:14;;;;;;;;;;;;;;;15.58;100.00;101365.03;5062805;28;20322;-66
2022/10/05 06:50:45;;;;;;;;;;;;;;;15.59;100.00;101367.69;5082298;28;20234;-66
2022/10/05 06:53:27;;;;;;;;;;;;;;;15.61;100.00;101359.72;5074769;28;19923;-66
2022/10/05 06:55:52;;;;;;;;;;;;;;;15.63;100.00;101368.59;5074886;28;20415;-66
2022/10/05 06:58:25;;;;;;;;;;;;;;;15.65;100.00;101367.72;5074644;28;20007;-66
2022/10/05 07:00:50;;;;;;;;;;;;;;;15.66;100.00;101364.16;5073078;28;19916;-67
2022/10/05 07:03:21;;;;;;;;;;;;;;;15.69;100.00;101365.94;5071818;28;19912;-66
2022/10/05 07:06:03;;;;;;;;;;;;;;;15.68;100.00;101366.81;5072500;28;19953;-66
2022/10/05 07:08:36;;;;;;;;;;;;;;;15.67;100.00;101363.28;5083485;28;20007;-66
2022/10/05 07:11:21;;;;;;;;;;;;;;;15.69;100.00;101357.97;5075733;28;19920;-67
2022/10/05 07:13:52;;;;;;;;;;;;;;;15.65;100.00;101354.44;5047717;28;19916;-67
2022/10/05 07:16:32;;;;;;;;;;;;;;;15.65;100.00;101342.94;5075059;28;20003;-67
2022/10/05 07:19:06;;;;;;;;;;;;;;;15.65;100.00;101342.94;5076493;28;19918;-67
2022/10/05 07:21:33;;;;;;;;;;;;;;;15.65;100.00;101340.28;5083409;28;19913;-67
2022/10/05 07:24:01;;;;;;;;;;;;;;;15.66;100.00;101342.06;5076808;28;19926;-67
2022/10/05 07:26:31;;;;;;;;;;;;;;;15.67;100.00;101339.41;5072082;28;19919;-68
2022/10/05 07:29:05;;;;;;;;;;;;;;;15.65;100.00;101340.28;5079868;28;19919;-68
2022/10/05 07:31:33;;;;;;;;;;;;;;;15.64;100.00;101341.16;5072644;28;19961;-68
2022/10/05 07:33:58;;;;;;;;;;;;;;;15.68;100.00;101335.88;5059848;28;19946;-66
2022/10/05 07:39:20;;;;;;;;;;;;;;;15.69;100.00;101336.75;5071886;28;19919;-67
2022/10/05 07:41:50;;;;;;;;;;;;;;;15.72;100.00;101328.81;5072336;28;19920;-67
2022/10/05 07:44:33;;;;;;;;;;;;;;;15.70;100.00;101335.88;5071212;28;20889;-67
2022/10/05 07:47:02;;;;;;;;;;;;;;;15.71;100.00;101335.00;5069348;28;19916;-68
2022/10/05 07:49:30;;;;;;;;;;;;;;;15.72;100.00;101331.47;5071227;28;19927;-67
2022/10/05 07:52:00;;;;;;;;;;;;;;;15.74;100.00;101335.00;5071395;28;19994;-67
2022/10/05 07:54:32;;;;;;;;;;;;;;;15.74;100.00;101324.41;5074150;28;19916;-68
2022/10/05 07:57:15;;;;;;;;;;;;;;;15.75;100.00;101330.56;5071939;28;19912;-68
2022/10/05 07:59:44;;;;;;;;;;;;;;;15.75;100.00;101330.56;5073856;28;19912;-67
2022/10/05 08:02:27;;;;;;;;;;;;;;;15.81;100.00;101331.50;5072695;28;19959;-68
2022/10/05 08:04:57;;;;;;;;;;;;;;;15.80;100.00;101335.06;5073027;28;19908;-67
2022/10/05 08:07:22;;;;;;;;;;;;;;;15.85;100.00;101324.47;5072991;28;20512;-67
2022/10/05 08:09:48;;;;;;;;;;;;;;;15.81;100.00;101326.22;5072934;28;19908;-67
2022/10/05 08:12:27;;;;;;;;;;;;;;;15.77;100.00;101319.09;5071856;28;19920;-67
2022/10/05 08:14:56;;;;;;;;;;;;;;;15.78;100.00;101323.53;5085408;28;19961;-66
2022/10/05 08:17:22;;;;;;;;;;;;;;;15.77;100.00;101328.81;5089559;28;19912;-67
2022/10/05 08:19:55;;;;;;;;;;;;;;;15.83;100.00;101324.47;5072584;28;20299;-67
2022/10/05 08:22:28;;;;;;;;;;;;;;;15.83;100.00;101315.63;5072872;28;19916;-66
2022/10/05 08:25:02;;;;;;;;;;;;;;;15.86;100.00;101320.94;5072745;28;19908;-66
2022/10/05 08:27:46;;;;;;;;;;;;;;;15.87;100.00;101321.81;5072116;28;19935;-66
2022/10/05 08:30:12;;;;;;;;;;;;;;;15.93;100.00;101319.19;5079135;28;19913;-66
2022/10/05 08:32:50;;;;;;;;;;;;;;;15.86;100.00;101318.28;5071775;28;19960;-67
2022/10/05 08:35:28;;;;;;;;;;;;;;;15.86;100.00;101310.31;5072339;28;19912;-66
2022/10/05 08:37:54;;;;;;;;;;;;;;;15.89;100.00;101322.72;5072479;28;20002;-66
2022/10/05 08:40:44;;;;;;;;;;;;;;;15.92;100.00;101309.44;5072274;28;19913;-67
2022/10/05 08:43:18;;;;;;;;;;;;;;;15.97;100.00;101302.38;5072952;28;19912;-66
2022/10/05 08:45:52;;;;;;;;;;;;;;;16.06;100.00;101309.44;5070522;28;19965;-66
2022/10/05 08:48:30;;;;;;;;;;;;;;;15.95;100.00;101302.38;5071999;28;19920;-67
2022/10/05 08:51:13;;;;;;;;;;;;;;;16.00;100.00;101302.38;5072838;28;19912;-67
2022/10/05 08:53:39;;;;;;;;;;;;;;;16.03;100.00;101299.72;5062569;28;19930;-67
2022/10/05 08:56:13;;;;;;;;;;;;;;;16.07;100.00;101305.91;5072610;28;20003;-67
2022/10/05 08:58:50;;;;;;;;;;;;;;;16.04;100.00;101280.25;5072949;28;19927;-67
2022/10/05 09:01:38;;;;;;;;;;;;;;;16.08;100.00;101292.63;5066538;28;19912;-66
2022/10/05 09:04:24;;;;;;;;;;;;;;;16.18;100.00;101289.13;5071056;28;19912;-66
2022/10/05 09:06:59;;;;;;;;;;;;;;;16.27;100.00;101279.38;5072536;28;19916;-67
2022/10/05 09:09:40;;;;;;;;;;;;;;;16.27;100.00;101287.34;5052885;28;19952;-67
2022/10/05 09:12:18;;;;;;;;;;;;;;;16.30;100.00;101282.91;5066258;28;20330;-67
2022/10/05 09:14:54;;;;;;;;;;;;;;;16.31;100.00;101295.31;5075961;28;19916;-67
2022/10/05 09:17:44;;;;;;;;;;;;;;;16.34;100.00;101278.50;5053215;28;20394;-67
2022/10/05 09:20:15;;;;;;;;;;;;;;;16.31;100.00;101279.38;5071681;28;20344;-66
2022/10/05 09:22:57;;;;;;;;;;;;;;;16.36;100.00;101276.72;5073317;28;19970;-68
2022/10/05 09:25:42;;;;;;;;;;;;;;;16.38;100.00;101274.94;5049163;28;20751;-67
2022/10/05 09:28:21;;;;;;;;;;;;;;;16.37;100.00;101283.78;5073435;28;19939;-67
2022/10/05 09:30:46;;;;;;;;;;;;;;;16.39;100.00;101282.03;5075591;28;19966;-67
2022/10/05 09:33:30;;;;;;;;;;;;;;;16.36;100.00;101276.72;5076156;28;20291;-67
2022/10/05 09:36:01;;;;;;;;;;;;;;;16.32;100.00;101280.28;5075765;28;19938;-67
2022/10/05 09:38:30;;;;;;;;;;;;;;;16.27;100.00;101279.38;5075527;28;19962;-68
2022/10/05 09:41:14;;;;;;;;;;;;;;;16.27;100.00;101276.72;5075762;28;20299;-67
2022/10/05 09:43:39;;;;;;;;;;;;;;;16.35;100.00;101285.59;5063954;28;19958;-68
2022/10/05 09:46:23;;;;;;;;;;;;;;;16.26;100.00;101280.25;5076397;28;20339;-67
2022/10/05 09:48:51;;;;;;;;;;;;;;;16.28;100.00;101282.03;5076279;28;19940;-67
2022/10/05 09:51:16;;;;;;;;;;;;;;;16.25;100.00;101283.78;5076314;28;19919;-66
2022/10/05 09:53:42;;;;;;;;;;;;;;;16.27;100.00;101292.66;5075601;28;20343;-66
2022/10/05 09:56:25;;;;;;;;;;;;;;;16.21;100.00;101282.94;5070448;28;20378;-66
2022/10/05 09:58:51;;;;;;;;;;;;;;;16.13;100.00;101280.25;5065922;28;19943;-66
2022/10/05 10:01:22;;;;;;;;;;;;;;;16.16;100.00;101279.38;5075414;28;19912;-67
2022/10/05 10:04:05;;;;;;;;;;;;;;;16.14;100.00;101279.38;5075573;28;19908;-67
2022/10/05 10:06:31;;;;;;;;;;;;;;;16.17;100.00;101281.16;5074517;28;19916;-66
2022/10/05 10:09:15;;;;;;;;;;;;;;;16.14;100.00;101271.44;5075282;28;19908;-66
2022/10/05 10:11:59;;;;;;;;;;;;;;;16.28;100.00;101270.53;5074252;28;19912;-68
2022/10/05 10:14:24;;;;;;;;;;;;;;;16.32;100.00;101274.97;5057301;28;19939;-68
2022/10/05 10:17:05;;;;;;;;;;;;;;;16.28;100.00;101268.75;5050045;28;20315;-68
2022/10/05 10:19:40;;;;;;;;;;;;;;;16.26;100.00;101259.03;5052542;28;20383;-68
2022/10/05 10:22:05;;;;;;;;;;;;;;;16.20;100.00;101259.91;5047551;28;20387;-68
2022/10/05 10:24:34;;;;;;;;;;;;;;;16.24;100.00;101267.00;5063768;28;19917;-68
2022/10/05 10:27:18;;;;;;;;;;;;;;;16.23;100.00;101264.34;5064979;28;19964;-68
2022/10/05 10:29:44;;;;;;;;;;;;;;;16.23;100.00;101270.53;5036751;28;19926;-67
2022/10/05 10:32:18;;;;;;;;;;;;;;;16.22;100.00;101267.88;5053067;28;19999;-68
2022/10/05 10:35:05;;;;;;;;;;;;;;;16.22;100.00;101262.56;5055039;28;20288;-68
2022/10/05 10:37:49;;;;;;;;;;;;;;;16.15;100.00;101264.34;5062088;28;19916;-68
2022/10/05 10:40:29;;;;;;;;;;;;;;;16.22;100.00;101266.09;5057260;28;19956;-68
2022/10/05 10:42:55;;;;;;;;;;;;;;;16.27;100.00;101266.09;5062262;28;20288;-68
2022/10/05 10:45:26;;;;;;;;;;;;;;;16.27;100.00;101247.53;5056261;28;19913;-68
2022/10/05 10:47:59;;;;;;;;;;;;;;;16.25;100.00;101252.84;5054353;28;20019;-67
2022/10/05 10:50:42;;;;;;;;;;;;;;;16.24;100.00;101266.13;5053226;28;20422;-68
2022/10/05 10:53:26;;;;;;;;;;;;;;;16.29;100.00;101259.00;5059039;28;19916;-68
2022/10/05 10:56:10;;;;;;;;;;;;;;;16.21;100.00;101266.09;5053925;28;20319;-68
2022/10/05 10:59:11;;;;;;;;;;;;;;;16.25;100.00;101262.56;5071421;28;20353;-68
2022/10/05 11:01:55;;;;;;;;;;;;;;;16.35;100.00;101272.31;4957080;28;20374;-68
2022/10/05 11:04:43;;;;;;;;;;;;;;;16.32;100.00;101254.59;5027450;28;19917;-68
2022/10/05 11:07:27;;;;;;;;;;;;;;;16.33;100.00;101258.13;5059602;28;19912;-69
2022/10/05 11:09:55;;;;;;;;;;;;;;;16.28;100.00;101259.91;5054371;28;20364;-64
2022/10/05 11:12:40;;;;;;;;;;;;;;;16.26;100.00;101265.19;5048983;28;20428;-67
2022/10/05 11:15:23;;;;;;;;;;;;;;;16.32;100.00;101259.03;5084673;28;19966;-67
2022/10/05 11:17:58;;;;;;;;;;;;;;;16.30;100.00;101260.78;5074475;28;19955;-67
2022/10/05 11:20:23;;;;;;;;;;;;;;;16.30;100.00;101261.66;5073027;28;20352;-67
2022/10/05 11:22:51;;;;;;;;;;;;;;;16.30;100.00;101271.41;5073506;28;19966;-65
2022/10/05 11:25:36;;;;;;;;;;;;;;;16.32;100.00;101259.03;5065161;28;19916;-68
2022/10/05 11:28:18;;;;;;;;;;;;;;;16.34;100.00;101254.59;5077148;28;20329;-68
2022/10/05 11:31:07;;;;;;;;;;;;;;;16.33;100.00;101245.75;5072065;28;19912;-69
2022/10/05 11:33:47;;;;;;;;;;;;;;;16.43;100.00;101246.63;5038213;28;19917;-67
2022/10/05 11:36:12;;;;;;;;;;;;;;;16.44;100.00;101252.81;5074091;28;19908;-67
2022/10/05 11:38:37;;;;;;;;;;;;;;;16.43;100.00;101254.59;5076864;28;19953;-67
2022/10/05 11:41:02;;;;;;;;;;;;;;;16.45;100.00;101243.94;5073966;28;19908;-68
2022/10/05 11:43:33;;;;;;;;;;;;;;;16.47;100.00;101248.38;5073234;28;20247;-67
2022/10/05 11:46:14;;;;;;;;;;;;;;;16.58;100.00;101244.84;5073309;28;19913;-67
2022/10/05 11:48:52;;;;;;;;;;;;;;;16.63;100.00;101228.00;5083457;28;19996;-68
2022/10/05 11:51:20;;;;;;;;;;;;;;;16.54;100.00;101235.97;5065049;28;19913;-68
2022/10/05 11:54:00;;;;;;;;;;;;;;;16.62;100.00;101236.84;5060419;28;19961;-68
2022/10/05 11:56:34;;;;;;;;;;;;;;;16.59;100.00;101243.91;5082951;28;19914;-66
2022/10/05 11:59:14;;;;;;;;;;;;;;;16.60;100.00;101230.63;5076066;28;19998;-68
2022/10/05 12:02:05;;;;;;;;;;;;;;;16.62;100.00;101225.34;5075825;28;19912;-69
2022/10/05 12:04:33;;;;;;;;;;;;;;;16.62;100.00;101220.03;5046687;28;20003;-67
2022/10/05 12:07:08;;;;;;;;;;;;;;;16.59;100.00;101222.66;5072047;28;19927;-67
2022/10/05 12:10:13;;;;;;;;;;;;;;;16.65;100.00;101217.34;5073367;28;19935;-67
2022/10/05 12:12:44;;;;;;;;;;;;;;;16.70;100.00;101220.88;5072322;28;19930;-67
2022/10/05 12:15:18;;;;;;;;;;;;;;;16.71;100.00;101217.31;5073698;28;19926;-67
2022/10/05 12:17:50;;;;;;;;;;;;;;;16.74;100.00;101201.38;5072509;28;19926;-67
2022/10/05 12:20:21;;;;;;;;;;;;;;;16.74;100.00;101217.34;5076428;28;20635;-67
2022/10/05 12:22:55;;;;;;;;;;;;;;;16.85;100.00;101202.22;5071378;28;20360;-68
2022/10/05 12:25:34;;;;;;;;;;;;;;;16.92;100.00;101196.94;5071916;28;20283;-67
2022/10/05 12:28:03;;;;;;;;;;;;;;;17.00;100.00;101214.59;5070694;28;19912;-67
2022/10/05 12:30:47;;;;;;;;;;;;;;;16.93;100.00;101214.63;5072798;28;19927;-68
2022/10/05 12:33:23;;;;;;;;;;;;;;;16.93;100.00;101209.31;5069655;28;19948;-67
2022/10/05 12:35:51;;;;;;;;;;;;;;;16.94;100.00;101197.78;5071286;28;19986;-67
2022/10/05 12:38:23;;;;;;;;;;;;;;;16.97;100.00;101200.44;5071405;28;19927;-68
2022/10/05 12:40:53;;;;;;;;;;;;;;;17.00;100.00;101208.41;5070948;28;20032;-68
2022/10/05 12:43:26;;;;;;;;;;;;;;;17.01;100.00;101197.78;5070735;28;19962;-68
2022/10/05 12:45:57;;;;;;;;;;;;;;;16.99;100.00;101212.81;5072887;28;20474;-67
2022/10/05 12:48:32;;;;;;;;;;;;;;;16.94;100.00;101209.34;5071213;28;19919;-66
2022/10/05 12:51:02;;;;;;;;;;;;;;;16.95;100.00;101196.91;5077465;28;19926;-67
2022/10/05 12:53:47;;;;;;;;;;;;;;;17.01;100.00;101191.53;5072075;28;20268;-66
2022/10/05 12:56:20;;;;;;;;;;;;;;;17.02;100.00;101198.66;5086376;28;19912;-68
2022/10/05 12:59:00;;;;;;;;;;;;;;;17.06;100.00;101189.75;5079790;28;20250;-68
2022/10/05 13:01:32;;;;;;;;;;;;;;;17.04;100.00;101202.19;5081363;28;20061;-68
2022/10/05 13:03:57;;;;;;;;;;;;;;;16.99;100.00;101209.28;5069118;28;20279;-68
2022/10/05 13:06:40;;;;;;;;;;;;;;;17.02;100.00;101203.97;5076345;28;19923;-66